Decoded Metar for KDDC (DODGE CITY in KS, USA) (IATA:DDC) | Meteo·Mobile Aviation Weather
aviador You're here:

KDDC Decoded Metar

DODGE CITY in KS, USA
Report Time2019-03-20 22:52:00
UTC Time2019-03-20 23:50:48
Flight Rules vfr VFR
Wind320° at 16 Gusting to 22 kt
W.Decomp.*RWY 32: 15.8 kt HW 2.2 kt LCW
RWY 02: 6.0 kt HW 14.8 kt LCW
W.Rank320° ranks 17
Current wind is above 320° avg. (10.3)
Visibility9999 m
Phenomena:N/A
Clouds:N/A
Expected CloudBase > 10,400 ft AGL from Temp-Dew spread
CeilingNone
Temp18°C (ISA +8)
Dew Point-8°C (16% RH)
AAT9.3°C
QNH1020 hPa
Density Alt3,356 ft
Elevation2,589 ft
Report Wrong Elevation
Raw Report
KDDC 202252Z AUTO 32016G22KT 10SM CLR 18/M08 A3013 RMK AO2 PK WND
31026/2242 SLP203 T01781083=

Extra information for KDDC:More info

Metar Taf Metar & Taf Last 4 Metars F.Rules Stats Wind Profile Meteogram Temp Stats Airport Information Weather charts Add Link Nearby VenuesMetar ALERT Operation Metar Decoded Social comments

AIRNAV info for KDDC